Pewaukee, Wisconsin
Current Conditions -  °F | °C
As of 8:55 PM on Thursday 18 Dec 2014 (Local Time) from KUES Reporting Station
Overcast Overcast  
Wind Chill: 25°   Ceiling: 2200
Heat Index: 25°   Visibility: 10mi
Dew Point: 23°   Wind: 3mph
Humidity: 93%   Direction: 310°NW
Pressure: 30.26"   Gusts: NA
Location:  43.08°N, 88.26°W
Report Text: KUES 190255Z AUTO 31003KT 10SM OVC022 M04/M05 A3026 RMK AO2
Loading
Personal Weather Stations






























Interactive Weather Map New forecast layout! Learn more

10-Day Weather Forecast

Advertisements
Track Severe Weather on mobile